createdAt,value
2022-08-08T00:02:30.651Z,1003.09
2022-08-08T00:30:56.181Z,1003.13
2022-08-08T00:59:43.331Z,1003.32
2022-08-08T01:28:02.456Z,1003.45
2022-08-08T01:56:49.976Z,1003.41
2022-08-08T02:25:47.557Z,1003.44
2022-08-08T02:54:00.704Z,1003.5
2022-08-08T03:23:06.587Z,1003.68
2022-08-08T03:51:56.805Z,1003.84
2022-08-08T04:21:08.655Z,1004.02
2022-08-08T04:50:05.152Z,1004.3
2022-08-08T05:18:28.247Z,1004.58
2022-08-08T05:48:10.014Z,1004.72
2022-08-08T06:16:36.625Z,1004.89
2022-08-08T06:45:17.032Z,1005.14
2022-08-08T07:14:29.825Z,1005.18
2022-08-08T07:43:54.604Z,1005.19
2022-08-08T08:12:57.318Z,1005.17
2022-08-08T08:42:13.556Z,1005.13
2022-08-08T09:11:02.734Z,1005.06
2022-08-08T09:39:23.379Z,1004.71
2022-08-08T10:08:46.826Z,1004.53
2022-08-08T10:37:35.820Z,1004.28
2022-08-08T11:06:25.004Z,1003.97
2022-08-08T11:35:37.902Z,1003.64
2022-08-08T12:04:11.214Z,1003.38
2022-08-08T12:33:14.284Z,1003.26
2022-08-08T13:02:07.534Z,1003.17
2022-08-08T13:31:22.775Z,1002.94
2022-08-08T14:00:37.609Z,1002.71
2022-08-08T14:29:40.728Z,1002.51
2022-08-08T14:58:36.654Z,1002.28
2022-08-08T15:28:33.146Z,1002.14
2022-08-08T15:56:43.952Z,1002.08
2022-08-08T16:25:53.621Z,1002.12
2022-08-08T16:54:59.044Z,1002.09
2022-08-08T17:23:26.137Z,1002.08
2022-08-08T17:51:53.183Z,1002.41
2022-08-08T18:20:44.450Z,1002.65
2022-08-08T18:49:11.553Z,1003.05
2022-08-08T19:18:31.665Z,1003.54
2022-08-08T19:46:41.444Z,1003.98
2022-08-08T20:16:00.084Z,1004.32
2022-08-08T20:44:26.076Z,1004.33
2022-08-08T21:13:41.507Z,1004.53
2022-08-08T21:42:11.156Z,1004.57
2022-08-08T22:11:45.065Z,1004.52
2022-08-08T22:40:02.630Z,1004.57
2022-08-08T23:08:54.817Z,1004.6
2022-08-08T23:37:12.557Z,1004.6
